createdAt,value
2023-11-26T00:01:29.527Z,98466.34
2023-11-26T00:03:56.774Z,98464.22
2023-11-26T00:06:23.873Z,98468.81
2023-11-26T00:08:50.961Z,98474.63
2023-11-26T00:11:18.123Z,98477.97
2023-11-26T00:13:46.277Z,98491.47
2023-11-26T00:16:13.453Z,98487.94
2023-11-26T00:18:40.879Z,98502.94
2023-11-26T00:21:08.039Z,98492.91
2023-11-26T00:23:35.110Z,98485.09
2023-11-26T00:26:02.302Z,98494.81
2023-11-26T00:28:29.674Z,98497.59
2023-11-26T00:30:56.771Z,98515.09
2023-11-26T00:33:25.019Z,98516.47
2023-11-26T00:35:52.143Z,98515.09
2023-11-26T00:38:19.256Z,98511.63
2023-11-26T00:40:46.808Z,98521.19
2023-11-26T00:43:15.994Z,98541.19
2023-11-26T00:45:43.442Z,98548.72
2023-11-26T00:48:11.341Z,98561.78
2023-11-26T00:50:38.547Z,98572.34
2023-11-26T00:53:06.134Z,98577.34
2023-11-26T00:55:33.582Z,98582.19
2023-11-26T00:58:00.662Z,98599.81
2023-11-26T01:00:27.829Z,98595.63
2023-11-26T01:02:56.053Z,98608.94
2023-11-26T01:05:23.371Z,98610.56
2023-11-26T01:07:50.559Z,98606.38
2023-11-26T01:10:17.770Z,98618.97
2023-11-26T01:12:44.929Z,98619.25
2023-11-26T01:15:12.083Z,98629.53
2023-11-26T01:17:39.313Z,98632.09
2023-11-26T01:20:07.316Z,98636.28
2023-11-26T01:22:34.532Z,98640.13
2023-11-26T01:25:01.641Z,98642.34
2023-11-26T01:27:28.829Z,98647.13
2023-11-26T01:29:56.018Z,98650.03
2023-11-26T01:32:23.596Z,98654.69
2023-11-26T01:34:50.767Z,98658.06
2023-11-26T01:37:18.335Z,98671.84
2023-11-26T01:39:45.814Z,98668.16
2023-11-26T01:42:12.883Z,98673.53
2023-11-26T01:44:40.094Z,98685.50
2023-11-26T01:47:07.971Z,98697.84
2023-11-26T01:49:36.295Z,98709.94
2023-11-26T01:52:04.807Z,98721.94
2023-11-26T01:54:33.563Z,98718.31
2023-11-26T01:57:02.216Z,98710.44
2023-11-26T01:59:29.845Z,98709.59
2023-11-26T02:01:57.089Z,98721.84
2023-11-26T02:04:24.297Z,98720.16
2023-11-26T02:06:52.418Z,98738.50
2023-11-26T02:09:19.553Z,98744.09
2023-11-26T02:11:47.130Z,98755.22
2023-11-26T02:14:14.724Z,98761.22
2023-11-26T02:16:45.968Z,98779.91
2023-11-26T02:19:24.520Z,98800.63
2023-11-26T02:21:51.769Z,98810.31
2023-11-26T02:24:21.617Z,98804.25
2023-11-26T02:26:48.721Z,98797.28
2023-11-26T02:29:15.841Z,98812.00
2023-11-26T02:31:43.002Z,98826.88
2023-11-26T02:34:10.138Z,98855.53
2023-11-26T02:36:38.144Z,98843.16
2023-11-26T02:39:06.014Z,98849.16
2023-11-26T02:41:34.100Z,98880.47
2023-11-26T02:44:01.255Z,98892.53
2023-11-26T02:46:28.968Z,98916.53
2023-11-26T02:48:56.201Z,98897.31
2023-11-26T02:51:23.386Z,98922.75
2023-11-26T02:53:50.455Z,98944.81
2023-11-26T14:26:45.577Z,97984.47
2023-11-26T14:29:12.685Z,97974.19
2023-11-26T14:31:39.826Z,97966.41
2023-11-26T14:34:06.942Z,97964.91
2023-11-26T14:36:34.338Z,97960.09
2023-11-26T14:39:01.604Z,97955.31
2023-11-26T14:41:28.747Z,97942.53
2023-11-26T14:43:56.979Z,97922.56
2023-11-26T14:46:25.762Z,97918.94
2023-11-26T14:48:53.315Z,97923.19
2023-11-26T14:51:21.460Z,97913.94
2023-11-26T14:53:51.272Z,97898.38
2023-11-26T15:08:23.438Z,97849.63
2023-11-26T15:10:50.556Z,97857.06
2023-11-26T15:13:18.041Z,97848.44
2023-11-26T15:15:45.582Z,97842.47
2023-11-26T15:18:13.068Z,97840.31
2023-11-26T15:20:40.180Z,97834.22
2023-11-26T15:23:09.592Z,97826.13
2023-11-26T15:25:38.183Z,97820.00
2023-11-26T15:28:05.311Z,97814.03
2023-11-26T15:30:32.466Z,97800.81
2023-11-26T15:32:59.683Z,97796.50
2023-11-26T15:35:26.840Z,97793.19
2023-11-26T15:37:53.906Z,97791.06
2023-11-26T15:40:22.345Z,97781.97
2023-11-26T15:42:49.977Z,97779.97
2023-11-26T15:45:17.434Z,97784.94
2023-11-26T15:47:45.060Z,97784.78
2023-11-26T15:50:12.819Z,97777.16
2023-11-26T15:52:40.052Z,97774.69
2023-11-26T15:55:10.416Z,97763.78
2023-11-26T15:57:37.754Z,97761.31
2023-11-26T16:00:06.043Z,97760.16
2023-11-26T16:02:40.461Z,97756.53
2023-11-26T16:05:07.957Z,97751.25
2023-11-26T16:07:35.122Z,97745.13
2023-11-26T16:10:02.312Z,97747.94
2023-11-26T16:12:30.198Z,97744.31
2023-11-26T16:14:57.293Z,97736.38
2023-11-26T16:17:30.069Z,97737.34
2023-11-26T16:20:03.971Z,97732.06
2023-11-26T16:22:34.800Z,97736.22
2023-11-26T16:25:01.985Z,97729.91
2023-11-26T16:27:29.136Z,97727.91
2023-11-26T16:29:56.216Z,97732.75
2023-11-26T16:32:23.653Z,97735.03
2023-11-26T16:34:50.773Z,97730.75
2023-11-26T16:37:18.617Z,97731.72
2023-11-26T16:39:45.810Z,97733.38
2023-11-26T16:42:13.062Z,97735.88
2023-11-26T16:44:40.461Z,97738.66
2023-11-26T16:47:08.589Z,97729.75
2023-11-26T16:49:35.859Z,97719.19
2023-11-26T16:52:03.033Z,97723.47
2023-11-26T16:54:30.732Z,97720.84
2023-11-26T16:56:57.944Z,97720.84
2023-11-26T16:59:26.585Z,97725.16
2023-11-26T17:01:53.808Z,97716.22
2023-11-26T17:04:20.957Z,97713.59
2023-11-26T17:06:48.180Z,97714.91
2023-11-26T17:09:15.293Z,97723.50
2023-11-26T17:11:43.154Z,97728.47
2023-11-26T17:14:10.747Z,97729.28
2023-11-26T17:16:37.897Z,97731.94
2023-11-26T17:19:05.229Z,97727.47
2023-11-26T17:21:32.513Z,97737.06
2023-11-26T17:23:59.671Z,97731.78
2023-11-26T17:26:28.503Z,97727.31
2023-11-26T17:28:55.629Z,97724.50
2023-11-26T17:31:22.906Z,97726.47
2023-11-26T17:33:50.115Z,97728.81
2023-11-26T17:36:17.449Z,97739.41
2023-11-26T17:38:45.413Z,97733.94
2023-11-26T17:41:13.005Z,97738.41
2023-11-26T17:43:40.645Z,97744.34
2023-11-26T17:46:07.997Z,97735.78
2023-11-26T17:48:35.308Z,97739.25
2023-11-26T17:51:02.435Z,97747.00
2023-11-26T17:53:29.737Z,97735.91
2023-11-26T17:55:56.826Z,97740.06
2023-11-26T17:58:24.028Z,97745.38
2023-11-26T18:00:51.294Z,97746.00
2023-11-26T18:03:18.836Z,97745.38
2023-11-26T18:05:46.121Z,97753.94
2023-11-26T18:08:13.264Z,97757.25
2023-11-26T18:10:40.787Z,97761.56
2023-11-26T18:13:07.988Z,97772.31
2023-11-26T18:15:35.110Z,97765.19
2023-11-26T18:18:02.306Z,97770.66
2023-11-26T18:20:29.485Z,97761.72
2023-11-26T18:22:56.619Z,97762.56
2023-11-26T18:25:23.754Z,97771.47
2023-11-26T18:27:50.878Z,97769.50
2023-11-26T18:30:18.087Z,97774.47
2023-11-26T18:32:45.339Z,97775.63
2023-11-26T18:35:13.887Z,97789.53
2023-11-26T18:37:42.265Z,97792.97
2023-11-26T18:40:11.170Z,97784.25
2023-11-26T18:42:38.457Z,97783.41
2023-11-26T18:45:05.859Z,97789.69
2023-11-26T18:47:32.998Z,97787.03
2023-11-26T18:50:00.095Z,97787.88
2023-11-26T18:52:27.441Z,97795.63
2023-11-26T18:54:56.632Z,97803.41
2023-11-26T18:57:25.601Z,97798.25
2023-11-26T18:59:54.621Z,97797.28
2023-11-26T19:02:21.856Z,97800.13
2023-11-26T19:04:49.147Z,97806.88
2023-11-26T19:07:16.285Z,97807.72
2023-11-26T19:09:44.059Z,97807.88
2023-11-26T19:12:11.232Z,97807.88
2023-11-26T19:14:38.548Z,97815.66
2023-11-26T19:17:05.813Z,97816.47
2023-11-26T19:19:32.957Z,97817.47
2023-11-26T19:22:00.282Z,97820.25
2023-11-26T19:24:27.484Z,97826.22
2023-11-26T19:26:54.593Z,97824.41
2023-11-26T19:29:23.072Z,97831.38
2023-11-26T19:31:50.196Z,97842.78
2023-11-26T19:34:17.411Z,97843.75
2023-11-26T19:36:44.628Z,97858.50
2023-11-26T19:39:11.787Z,97852.38
2023-11-26T19:41:42.616Z,97858.50
2023-11-26T19:44:09.865Z,97856.50
2023-11-26T19:46:40.645Z,97860.13
2023-11-26T19:49:08.775Z,97857.50
2023-11-26T19:51:36.392Z,97863.47
2023-11-26T19:54:03.881Z,97867.91
2023-11-26T19:56:31.336Z,97865.94
2023-11-26T19:58:58.472Z,97862.47
2023-11-26T20:01:27.083Z,97864.28
2023-11-26T20:03:58.756Z,97867.75
2023-11-26T20:06:25.953Z,97867.75
2023-11-26T20:08:53.238Z,97875.41
2023-11-26T20:11:20.921Z,97877.06
2023-11-26T20:13:48.323Z,97877.06
2023-11-26T20:16:15.969Z,97883.16
2023-11-26T20:18:43.481Z,97879.84
2023-11-26T20:21:10.761Z,97889.63
2023-11-26T20:23:37.931Z,97880.69
2023-11-26T20:26:05.783Z,97880.84
2023-11-26T20:28:32.915Z,97882.50
2023-11-26T20:31:07.954Z,97876.38
2023-11-26T20:33:37.574Z,97885.97
2023-11-26T20:36:05.298Z,97891.28
2023-11-26T20:38:32.486Z,97895.75
2023-11-26T20:40:59.997Z,97894.91
2023-11-26T20:43:27.083Z,97895.75
2023-11-26T20:45:54.307Z,97894.91
2023-11-26T20:48:21.695Z,97897.41
2023-11-26T20:50:48.792Z,97901.84
2023-11-26T20:53:17.448Z,97897.56
2023-11-26T20:55:44.828Z,97902.84
2023-11-26T20:58:11.997Z,97904.81
2023-11-26T21:00:39.153Z,97905.78
2023-11-26T21:03:06.509Z,97910.09
2023-11-26T21:05:34.947Z,97909.44
2023-11-26T21:08:02.247Z,97909.28
2023-11-26T21:10:29.395Z,97918.03
2023-11-26T21:12:58.068Z,97910.94
2023-11-26T21:15:25.359Z,97911.09
2023-11-26T21:17:52.474Z,97911.91
2023-11-26T21:20:19.653Z,97916.38
2023-11-26T21:22:46.771Z,97925.16
2023-11-26T21:25:13.965Z,97925.97
2023-11-26T21:27:41.282Z,97928.63
2023-11-26T21:30:08.751Z,97920.84
2023-11-26T21:32:36.673Z,97926.97
2023-11-26T21:35:03.991Z,97929.59
2023-11-26T21:37:31.208Z,97926.97
2023-11-26T21:39:58.372Z,97929.75
2023-11-26T21:42:25.581Z,97932.25
2023-11-26T21:44:52.680Z,97930.59
2023-11-26T21:47:19.776Z,97931.44
2023-11-26T21:49:46.921Z,97922.66
2023-11-26T21:52:16.207Z,97921.66
2023-11-26T21:54:43.504Z,97916.53
2023-11-26T21:57:10.635Z,97920.00
2023-11-26T21:59:37.834Z,97934.06
2023-11-26T22:02:05.156Z,97930.59
2023-11-26T22:04:33.072Z,97926.97
2023-11-26T22:07:02.439Z,97928.63
2023-11-26T22:09:29.576Z,97926.97
2023-11-26T22:11:56.676Z,97939.22
2023-11-26T22:14:23.790Z,97933.09
2023-11-26T22:16:50.950Z,97940.88
2023-11-26T22:19:18.102Z,97937.56
2023-11-26T22:21:45.236Z,97938.38
2023-11-26T22:24:12.422Z,97942.16
2023-11-26T22:26:41.411Z,97948.13
2023-11-26T22:29:09.371Z,97945.63
2023-11-26T22:31:36.890Z,97948.13
2023-11-26T22:34:04.040Z,97954.41
2023-11-26T22:36:33.687Z,97963.19
2023-11-26T22:39:00.827Z,97964.00
2023-11-26T22:41:28.525Z,97966.81
2023-11-26T22:43:57.179Z,97970.28
2023-11-26T22:46:25.241Z,97979.88
2023-11-26T22:48:54.129Z,97986.16
2023-11-26T22:51:21.567Z,97977.38
2023-11-26T22:53:48.709Z,97986.84
2023-11-26T22:56:15.971Z,97989.63
2023-11-26T22:58:43.521Z,98001.06
2023-11-26T23:01:11.916Z,97994.09
2023-11-26T23:03:39.253Z,98001.06
2023-11-26T23:06:07.312Z,98017.91
2023-11-26T23:08:34.536Z,98000.38
2023-11-26T23:11:01.675Z,98015.25
2023-11-26T23:13:31.399Z,98010.66
2023-11-26T23:15:58.925Z,98018.59
2023-11-26T23:18:26.927Z,98016.09
2023-11-26T23:20:54.984Z,98016.78
2023-11-26T23:23:34.279Z,98020.25
2023-11-26T23:26:09.235Z,98015.94
2023-11-26T23:28:36.465Z,98022.06
2023-11-26T23:31:03.764Z,98022.06
2023-11-26T23:33:30.944Z,98023.06
2023-11-26T23:35:58.062Z,98027.50
2023-11-26T23:38:25.197Z,98028.50
2023-11-26T23:40:52.330Z,98030.31
2023-11-26T23:43:19.635Z,98039.09
2023-11-26T23:45:46.873Z,98044.38
2023-11-26T23:48:14.043Z,98054.97
2023-11-26T23:50:41.196Z,98061.09
2023-11-26T23:53:08.320Z,98064.56
2023-11-26T23:55:35.449Z,98068.03
2023-11-26T23:58:02.649Z,98074.03
